sensor_id;sensor_type;location;lat;lon;timestamp;pressure;altitude;pressure_sealevel;temperature;humidity
67517;BME280;68821;59.134;37.894;2023-04-10T00:01:44;101192.88;;;4.10;44.27
67517;BME280;68821;59.134;37.894;2023-04-10T00:04:10;101207.38;;;4.11;44.21
67517;BME280;68821;59.134;37.894;2023-04-10T00:06:36;101205.59;;;4.10;44.69
67517;BME280;68821;59.134;37.894;2023-04-10T00:09:02;101208.84;;;4.07;44.39
67517;BME280;68821;59.134;37.894;2023-04-10T00:11:28;101205.19;;;4.02;44.31
67517;BME280;68821;59.134;37.894;2023-04-10T00:13:54;101204.13;;;3.98;44.12
67517;BME280;68821;59.134;37.894;2023-04-10T00:16:20;101211.13;;;4.02;44.35
67517;BME280;68821;59.134;37.894;2023-04-10T00:18:46;101211.91;;;4.01;44.35
67517;BME280;68821;59.134;37.894;2023-04-10T00:21:12;101210.19;;;4.00;44.21
67517;BME280;68821;59.134;37.894;2023-04-10T00:23:38;101208.34;;;3.98;44.24
67517;BME280;68821;59.134;37.894;2023-04-10T00:26:04;101214.31;;;3.98;44.28
67517;BME280;68821;59.134;37.894;2023-04-10T00:28:30;101210.78;;;3.96;44.00
67517;BME280;68821;59.134;37.894;2023-04-10T00:30:56;101215.78;;;3.95;44.06
67517;BME280;68821;59.134;37.894;2023-04-10T00:33:22;101213.16;;;3.93;44.20
67517;BME280;68821;59.134;37.894;2023-04-10T00:35:48;101214.03;;;3.94;44.07
67517;BME280;68821;59.134;37.894;2023-04-10T00:38:14;101214.03;;;3.94;43.89
67517;BME280;68821;59.134;37.894;2023-04-10T00:40:41;101212.13;;;3.90;44.20
67517;BME280;68821;59.134;37.894;2023-04-10T00:43:07;101215.44;;;3.89;44.23
67517;BME280;68821;59.134;37.894;2023-04-10T00:45:33;101208.41;;;3.85;43.84
67517;BME280;68821;59.134;37.894;2023-04-10T00:47:59;101212.78;;;3.87;43.93
67517;BME280;68821;59.134;37.894;2023-04-10T00:50:25;101216.91;;;3.85;43.90
67517;BME280;68821;59.134;37.894;2023-04-10T00:52:52;101210.00;;;3.82;44.42
67517;BME280;68821;59.134;37.894;2023-04-10T00:55:18;101208.88;;;3.77;43.78
67517;BME280;68821;59.134;37.894;2023-04-10T00:57:49;101199.31;;;3.73;44.30
67517;BME280;68821;59.134;37.894;2023-04-10T01:00:17;101212.09;;;3.75;44.09
67517;BME280;68821;59.134;37.894;2023-04-10T01:02:43;101211.94;;;3.72;43.87
67517;BME280;68821;59.134;37.894;2023-04-10T01:05:11;101210.97;;;3.70;44.30
67517;BME280;68821;59.134;37.894;2023-04-10T01:07:57;101214.97;;;3.66;44.07
67517;BME280;68821;59.134;37.894;2023-04-10T01:10:49;101214.88;;;3.65;44.14
67517;BME280;68821;59.134;37.894;2023-04-10T01:13:42;101210.34;;;3.59;44.25
67517;BME280;68821;59.134;37.894;2023-04-10T01:16:16;101217.97;;;3.59;44.53
67517;BME280;68821;59.134;37.894;2023-04-10T01:18:49;101216.09;;;3.56;44.39
67517;BME280;68821;59.134;37.894;2023-04-10T01:21:21;101213.31;;;3.52;44.22
67517;BME280;68821;59.134;37.894;2023-04-10T01:27:01;101213.31;;;3.52;44.24
67517;BME280;68821;59.134;37.894;2023-04-10T01:29:33;101216.81;;;3.54;44.38
67517;BME280;68821;59.134;37.894;2023-04-10T01:32:10;101219.09;;;3.49;43.97
67517;BME280;68821;59.134;37.894;2023-04-10T01:34:58;101219.78;;;3.47;44.36
67517;BME280;68821;59.134;37.894;2023-04-10T01:37:29;101227.31;;;3.45;44.37
67517;BME280;68821;59.134;37.894;2023-04-10T01:40:08;101221.88;;;3.39;44.46
67517;BME280;68821;59.134;37.894;2023-04-10T01:42:40;101225.13;;;3.36;44.55
67517;BME280;68821;59.134;37.894;2023-04-10T01:45:08;101229.31;;;3.36;44.26
67517;BME280;68821;59.134;37.894;2023-04-10T01:47:37;101226.69;;;3.34;44.97
67517;BME280;68821;59.134;37.894;2023-04-10T01:50:03;101234.22;;;3.33;44.04
67517;BME280;68821;59.134;37.894;2023-04-10T01:52:31;101234.13;;;3.31;44.06
67517;BME280;68821;59.134;37.894;2023-04-10T01:54:58;101224.56;;;3.27;44.23
67517;BME280;68821;59.134;37.894;2023-04-10T01:57:31;101232.19;;;3.27;44.08
67517;BME280;68821;59.134;37.894;2023-04-10T01:59:57;101231.22;;;3.25;44.25
67517;BME280;68821;59.134;37.894;2023-04-10T02:02:23;101227.69;;;3.23;44.75
67517;BME280;68821;59.134;37.894;2023-04-10T02:04:49;101235.22;;;3.21;44.73
67517;BME280;68821;59.134;37.894;2023-04-10T02:07:28;101235.06;;;3.18;44.90
67517;BME280;68821;59.134;37.894;2023-04-10T02:10:08;101233.97;;;3.15;44.86
67517;BME280;68821;59.134;37.894;2023-04-10T02:12:51;101235.66;;;3.14;44.82
67517;BME280;68821;59.134;37.894;2023-04-10T02:15:26;101228.63;;;3.10;45.02
67517;BME280;68821;59.134;37.894;2023-04-10T02:17:53;101231.16;;;3.10;44.79
67517;BME280;68821;59.134;37.894;2023-04-10T02:20:22;101237.81;;;3.08;45.00
67517;BME280;68821;59.134;37.894;2023-04-10T02:22:49;101232.25;;;3.00;44.55
67517;BME280;68821;59.134;37.894;2023-04-10T02:25:16;101233.06;;;2.99;44.30
67517;BME280;68821;59.134;37.894;2023-04-10T02:27:42;101233.66;;;2.95;44.48
67517;BME280;68821;59.134;37.894;2023-04-10T02:30:10;101236.97;;;2.94;44.65
67517;BME280;68821;59.134;37.894;2023-04-10T02:32:36;101232.50;;;2.90;44.54
67517;BME280;68821;59.134;37.894;2023-04-10T02:35:02;101231.41;;;2.87;45.19
67517;BME280;68821;59.134;37.894;2023-04-10T02:37:29;101229.66;;;2.86;45.03
67517;BME280;68821;59.134;37.894;2023-04-10T02:39:55;101233.69;;;2.82;45.10
67517;BME280;68821;59.134;37.894;2023-04-10T02:42:22;101238.00;;;2.83;45.03
67517;BME280;68821;59.134;37.894;2023-04-10T02:44:48;101228.59;;;2.82;45.52
67517;BME280;68821;59.134;37.894;2023-04-10T02:47:14;101236.22;;;2.82;45.28
67517;BME280;68821;59.134;37.894;2023-04-10T02:49:40;101234.38;;;2.79;45.93
67517;BME280;68821;59.134;37.894;2023-04-10T02:52:07;101236.69;;;2.76;45.81
67517;BME280;68821;59.134;37.894;2023-04-10T02:54:33;101239.25;;;2.76;45.40
67517;BME280;68821;59.134;37.894;2023-04-10T02:57:04;101245.13;;;2.75;46.04
67517;BME280;68821;59.134;37.894;2023-04-10T02:59:30;101245.88;;;2.74;45.69
67517;BME280;68821;59.134;37.894;2023-04-10T03:01:56;101249.31;;;2.75;46.26
67517;BME280;68821;59.134;37.894;2023-04-10T03:04:22;101244.25;;;2.75;45.98
67517;BME280;68821;59.134;37.894;2023-04-10T03:06:48;101236.53;;;2.73;46.35
67517;BME280;68821;59.134;37.894;2023-04-10T03:09:14;101242.47;;;2.74;46.47
67517;BME280;68821;59.134;37.894;2023-04-10T03:11:40;101244.25;;;2.75;46.33
67517;BME280;68821;59.134;37.894;2023-04-10T03:14:07;101241.72;;;2.75;46.40
67517;BME280;68821;59.134;37.894;2023-04-10T03:16:34;101245.22;;;2.77;46.15
67517;BME280;68821;59.134;37.894;2023-04-10T03:19:00;101241.78;;;2.76;46.24
67517;BME280;68821;59.134;37.894;2023-04-10T03:21:26;101251.28;;;2.79;46.06
67517;BME280;68821;59.134;37.894;2023-04-10T03:23:53;101248.81;;;2.80;46.50
67517;BME280;68821;59.134;37.894;2023-04-10T03:26:19;101243.66;;;2.79;46.09
67517;BME280;68821;59.134;37.894;2023-04-10T03:28:45;101248.81;;;2.80;46.49
67517;BME280;68821;59.134;37.894;2023-04-10T03:31:12;101248.81;;;2.80;46.33
67517;BME280;68821;59.134;37.894;2023-04-10T03:33:38;101245.69;;;2.85;46.37
67517;BME280;68821;59.134;37.894;2023-04-10T03:36:04;101238.06;;;2.85;46.67
67517;BME280;68821;59.134;37.894;2023-04-10T03:38:30;101251.22;;;2.92;46.24
67517;BME280;68821;59.134;37.894;2023-04-10T03:40:56;101240.22;;;2.92;46.30
67517;BME280;68821;59.134;37.894;2023-04-10T03:43:23;101245.75;;;2.99;45.79
67517;BME280;68821;59.134;37.894;2023-04-10T03:45:50;101251.13;;;3.04;46.17
67517;BME280;68821;59.134;37.894;2023-04-10T03:48:16;101247.88;;;3.07;46.20
67517;BME280;68821;59.134;37.894;2023-04-10T03:50:42;101253.94;;;3.09;46.09
67517;BME280;68821;59.134;37.894;2023-04-10T03:53:09;101247.19;;;3.09;45.88
67517;BME280;68821;59.134;37.894;2023-04-10T03:55:35;101242.19;;;3.11;45.81
67517;BME280;68821;59.134;37.894;2023-04-10T03:58:08;101242.41;;;3.14;46.18
67517;BME280;68821;59.134;37.894;2023-04-10T04:00:34;101256.25;;;3.19;45.98
67517;BME280;68821;59.134;37.894;2023-04-10T04:03:00;101247.16;;;3.22;45.66
67517;BME280;68821;59.134;37.894;2023-04-10T04:05:30;101252.59;;;3.29;45.77
67517;BME280;68821;59.134;37.894;2023-04-10T04:07:56;101246.72;;;3.30;45.62
67517;BME280;68821;59.134;37.894;2023-04-10T04:10:22;101252.16;;;3.36;45.77
67517;BME280;68821;59.134;37.894;2023-04-10T04:12:49;101250.81;;;3.41;45.75
67517;BME280;68821;59.134;37.894;2023-04-10T04:15:15;101251.06;;;3.46;45.69
67517;BME280;68821;59.134;37.894;2023-04-10T04:17:41;101248.72;;;3.49;45.69
67517;BME280;68821;59.134;37.894;2023-04-10T04:20:08;101247.91;;;3.50;45.65
67517;BME280;68821;59.134;37.894;2023-04-10T04:22:34;101245.03;;;3.58;45.69
67517;BME280;68821;59.134;37.894;2023-04-10T04:25:00;101247.88;;;3.63;45.47
67517;BME280;68821;59.134;37.894;2023-04-10T04:27:26;101244.63;;;3.66;45.67
67517;BME280;68821;59.134;37.894;2023-04-10T04:29:52;101245.75;;;3.71;45.57
67517;BME280;68821;59.134;37.894;2023-04-10T04:32:18;101250.34;;;3.76;45.51
67517;BME280;68821;59.134;37.894;2023-04-10T04:34:45;101234.38;;;3.79;45.33
67517;BME280;68821;59.134;37.894;2023-04-10T04:37:11;101240.72;;;3.86;45.38
67517;BME280;68821;59.134;37.894;2023-04-10T04:39:37;101237.56;;;3.90;45.36
67517;BME280;68821;59.134;37.894;2023-04-10T04:42:03;101237.63;;;3.91;45.69
67517;BME280;68821;59.134;37.894;2023-04-10T04:44:29;101231.31;;;3.99;45.26
67517;BME280;68821;59.134;37.894;2023-04-10T04:46:55;101242.72;;;4.06;45.36
67517;BME280;68821;59.134;37.894;2023-04-10T04:49:21;101236.22;;;4.11;45.44
67517;BME280;68821;59.134;37.894;2023-04-10T04:51:47;101237.44;;;4.18;45.37
67517;BME280;68821;59.134;37.894;2023-04-10T04:54:13;101225.88;;;4.23;45.52
67517;BME280;68821;59.134;37.894;2023-04-10T04:56:40;101240.84;;;4.33;45.27
67517;BME280;68821;59.134;37.894;2023-04-10T04:59:11;101241.19;;;4.39;45.20
67517;BME280;68821;59.134;37.894;2023-04-10T05:01:37;101233.91;;;4.46;45.27
67517;BME280;68821;59.134;37.894;2023-04-10T05:04:03;101235.97;;;4.53;44.94
67517;BME280;68821;59.134;37.894;2023-04-10T05:06:29;101236.31;;;4.59;45.01
67517;BME280;68821;59.134;37.894;2023-04-10T05:08:56;101246.84;;;4.65;45.09
67517;BME280;68821;59.134;37.894;2023-04-10T05:11:22;101242.88;;;4.70;45.19
67517;BME280;68821;59.134;37.894;2023-04-10T05:13:48;101241.53;;;4.77;44.95
67517;BME280;68821;59.134;37.894;2023-04-10T05:16:14;101242.06;;;4.86;44.85
67517;BME280;68821;59.134;37.894;2023-04-10T05:18:40;101246.84;;;4.96;44.57
67517;BME280;68821;59.134;37.894;2023-04-10T05:21:06;101243.91;;;5.05;44.71
67517;BME280;68821;59.134;37.894;2023-04-10T05:23:32;101241.78;;;5.13;44.39
67517;BME280;68821;59.134;37.894;2023-04-10T05:25:58;101235.13;;;5.16;44.36
67517;BME280;68821;59.134;37.894;2023-04-10T05:28:25;101242.47;;;5.27;44.33
67517;BME280;68821;59.134;37.894;2023-04-10T05:30:51;101247.25;;;5.37;44.68
67517;BME280;68821;59.134;37.894;2023-04-10T05:33:17;101244.31;;;5.46;44.54
67517;BME280;68821;59.134;37.894;2023-04-10T05:35:45;101229.88;;;5.46;44.67
67517;BME280;68821;59.134;37.894;2023-04-10T05:38:11;101247.81;;;5.64;44.63
67517;BME280;68821;59.134;37.894;2023-04-10T05:40:37;101246.59;;;5.74;43.80
67517;BME280;68821;59.134;37.894;2023-04-10T05:43:03;101246.88;;;5.80;44.47
67517;BME280;68821;59.134;37.894;2023-04-10T05:45:29;101252.56;;;5.91;44.47
67517;BME280;68821;59.134;37.894;2023-04-10T05:47:55;101252.06;;;5.98;43.55
67517;BME280;68821;59.134;37.894;2023-04-10T05:50:21;101251.72;;;6.08;43.64
67517;BME280;68821;59.134;37.894;2023-04-10T05:52:47;101259.91;;;6.19;43.40
67517;BME280;68821;59.134;37.894;2023-04-10T05:55:13;101256.00;;;6.26;43.17
67517;BME280;68821;59.134;37.894;2023-04-10T05:57:45;101258.03;;;6.33;43.45
67517;BME280;68821;59.134;37.894;2023-04-10T06:00:11;101256.63;;;6.39;43.56
67517;BME280;68821;59.134;37.894;2023-04-10T06:02:39;101251.97;;;6.49;43.24
67517;BME280;68821;59.134;37.894;2023-04-10T06:05:05;101260.00;;;6.56;43.01
67517;BME280;68821;59.134;37.894;2023-04-10T06:07:31;101256.94;;;6.63;43.74
67517;BME280;68821;59.134;37.894;2023-04-10T06:09:57;101254.66;;;6.70;43.66
67517;BME280;68821;59.134;37.894;2023-04-10T06:12:24;101260.22;;;6.79;42.92
67517;BME280;68821;59.134;37.894;2023-04-10T06:14:50;101254.50;;;6.84;43.71
67517;BME280;68821;59.134;37.894;2023-04-10T06:17:16;101257.41;;;6.92;43.37
67517;BME280;68821;59.134;37.894;2023-04-10T06:19:42;101260.31;;;7.00;43.52
67517;BME280;68821;59.134;37.894;2023-04-10T06:22:08;101258.13;;;7.08;42.93
67517;BME280;68821;59.134;37.894;2023-04-10T06:24:34;101262.69;;;7.15;42.96
67517;BME280;68821;59.134;37.894;2023-04-10T06:27:01;101261.41;;;7.24;42.68
67517;BME280;68821;59.134;37.894;2023-04-10T06:29:27;101265.28;;;7.34;43.04
67517;BME280;68821;59.134;37.894;2023-04-10T06:31:53;101265.53;;;7.40;42.62
67517;BME280;68821;59.134;37.894;2023-04-10T06:34:19;101261.63;;;7.49;42.72
67517;BME280;68821;59.134;37.894;2023-04-10T06:36:45;101267.03;;;7.55;42.46
67517;BME280;68821;59.134;37.894;2023-04-10T06:39:11;101265.66;;;7.63;42.25
67517;BME280;68821;59.134;37.894;2023-04-10T06:41:37;101268.41;;;7.68;42.11
67517;BME280;68821;59.134;37.894;2023-04-10T06:44:03;101273.13;;;7.78;42.25
67517;BME280;68821;59.134;37.894;2023-04-10T06:46:29;101264.84;;;7.83;41.97
67517;BME280;68821;59.134;37.894;2023-04-10T06:48:55;101268.50;;;7.90;42.03
67517;BME280;68821;59.134;37.894;2023-04-10T06:51:21;101270.59;;;7.99;41.63
67517;BME280;68821;59.134;37.894;2023-04-10T06:53:47;101264.09;;;8.07;42.17
67517;BME280;68821;59.134;37.894;2023-04-10T06:56:13;101266.91;;;8.13;41.58
67517;BME280;68821;59.134;37.894;2023-04-10T06:58:44;101269.03;;;8.23;41.78
67517;BME280;68821;59.134;37.894;2023-04-10T07:01:10;101265.91;;;8.31;41.54
67517;BME280;68821;59.134;37.894;2023-04-10T07:03:36;101268.75;;;8.38;41.12
67517;BME280;68821;59.134;37.894;2023-04-10T07:06:03;101261.44;;;8.46;41.09
67517;BME280;68821;59.134;37.894;2023-04-10T07:08:29;101257.47;;;8.54;40.98
67517;BME280;68821;59.134;37.894;2023-04-10T07:10:55;101259.59;;;8.64;41.34
67517;BME280;68821;59.134;37.894;2023-04-10T07:13:21;101250.50;;;8.73;41.02
67517;BME280;68821;59.134;37.894;2023-04-10T07:15:47;101261.22;;;8.85;40.58
67517;BME280;68821;59.134;37.894;2023-04-10T07:18:13;101259.97;;;8.96;41.11
67517;BME280;68821;59.134;37.894;2023-04-10T07:20:39;101253.53;;;9.07;40.64
67517;BME280;68821;59.134;37.894;2023-04-10T07:23:05;101258.31;;;9.21;40.41
67517;BME280;68821;59.134;37.894;2023-04-10T07:25:32;101251.56;;;9.24;39.54
67517;BME280;68821;59.134;37.894;2023-04-10T07:27:58;101254.56;;;9.37;40.17
67517;BME280;68821;59.134;37.894;2023-04-10T07:30:24;101247.09;;;9.43;39.27
67517;BME280;68821;59.134;37.894;2023-04-10T07:32:50;101244.88;;;9.52;39.73
67517;BME280;68821;59.134;37.894;2023-04-10T07:35:16;101252.88;;;9.61;39.05
67517;BME280;68821;59.134;37.894;2023-04-10T07:37:42;101247.88;;;9.64;39.88
67517;BME280;68821;59.134;37.894;2023-04-10T07:40:09;101242.00;;;9.69;39.10
67517;BME280;68821;59.134;37.894;2023-04-10T07:42:35;101243.88;;;9.73;38.66
67517;BME280;68821;59.134;37.894;2023-04-10T07:45:02;101245.94;;;9.83;39.46
67517;BME280;68821;59.134;37.894;2023-04-10T07:47:28;101245.34;;;9.92;39.13
67517;BME280;68821;59.134;37.894;2023-04-10T07:49:54;101243.91;;;10.00;38.63
67517;BME280;68821;59.134;37.894;2023-04-10T07:52:21;101244.22;;;10.09;39.15
67517;BME280;68821;59.134;37.894;2023-04-10T07:54:47;101244.47;;;10.17;39.26
67517;BME280;68821;59.134;37.894;2023-04-10T07:57:18;101232.72;;;10.23;38.27
67517;BME280;68821;59.134;37.894;2023-04-10T07:59:44;101239.84;;;10.32;37.94
67517;BME280;68821;59.134;37.894;2023-04-10T08:02:10;101237.63;;;10.43;38.39
67517;BME280;68821;59.134;37.894;2023-04-10T08:04:36;101230.03;;;10.47;38.22
67517;BME280;68821;59.134;37.894;2023-04-10T08:07:02;101225.09;;;10.54;37.71
67517;BME280;68821;59.134;37.894;2023-04-10T08:09:28;101222.69;;;10.58;38.25
67517;BME280;68821;59.134;37.894;2023-04-10T08:11:55;101225.56;;;10.69;37.63
67517;BME280;68821;59.134;37.894;2023-04-10T08:14:22;101225.81;;;10.78;37.32
67517;BME280;68821;59.134;37.894;2023-04-10T08:16:48;101228.63;;;10.86;37.47
67517;BME280;68821;59.134;37.894;2023-04-10T08:19:14;101228.88;;;10.94;37.17
67517;BME280;68821;59.134;37.894;2023-04-10T08:21:40;101226.41;;;10.98;37.08
67517;BME280;68821;59.134;37.894;2023-04-10T08:24:06;101224.06;;;11.06;37.18
67517;BME280;68821;59.134;37.894;2023-04-10T08:26:32;101230.25;;;11.13;36.25
67517;BME280;68821;59.134;37.894;2023-04-10T08:28:59;101229.50;;;11.17;36.12
67517;BME280;68821;59.134;37.894;2023-04-10T08:31:26;101228.81;;;11.22;36.56
67517;BME280;68821;59.134;37.894;2023-04-10T08:33:53;101220.44;;;11.30;36.37
67517;BME280;68821;59.134;37.894;2023-04-10T08:36:20;101221.50;;;11.38;35.97
67517;BME280;68821;59.134;37.894;2023-04-10T08:38:46;101224.34;;;11.47;35.91
67517;BME280;68821;59.134;37.894;2023-04-10T08:41:13;101219.41;;;11.56;36.14
67517;BME280;68821;59.134;37.894;2023-04-10T08:43:40;101218.78;;;11.63;35.78
67517;BME280;68821;59.134;37.894;2023-04-10T08:46:08;101212.91;;;11.69;35.26
67517;BME280;68821;59.134;37.894;2023-04-10T08:48:38;101218.22;;;11.75;35.39
67517;BME280;68821;59.134;37.894;2023-04-10T08:51:09;101223.53;;;11.83;35.05
67517;BME280;68821;59.134;37.894;2023-04-10T08:53:40;101215.94;;;11.87;35.22
67517;BME280;68821;59.134;37.894;2023-04-10T08:56:11;101216.19;;;11.97;34.48
67517;BME280;68821;59.134;37.894;2023-04-10T08:58:44;101216.25;;;11.98;34.30
67517;BME280;68821;59.134;37.894;2023-04-10T09:01:10;101212.88;;;12.01;34.36
67517;BME280;68821;59.134;37.894;2023-04-10T09:03:37;101218.22;;;12.08;34.40
67517;BME280;68821;59.134;37.894;2023-04-10T09:06:04;101211.44;;;12.14;34.26
67517;BME280;68821;59.134;37.894;2023-04-10T09:08:30;101213.41;;;12.24;34.17
67517;BME280;68821;59.134;37.894;2023-04-10T09:10:57;101217.94;;;12.33;33.84
67517;BME280;68821;59.134;37.894;2023-04-10T09:13:42;101212.81;;;12.36;33.88
67517;BME280;68821;59.134;37.894;2023-04-10T09:16:09;101212.16;;;12.43;33.79
67517;BME280;68821;59.134;37.894;2023-04-10T09:21:14;101209.81;;;12.54;33.26
67517;BME280;68821;59.134;37.894;2023-04-10T09:23:41;101215.00;;;12.57;33.38
67517;BME280;68821;59.134;37.894;2023-04-10T09:26:28;101210.75;;;12.59;32.73
67517;BME280;68821;59.134;37.894;2023-04-10T09:29:05;101216.94;;;12.65;33.24
67517;BME280;68821;59.134;37.894;2023-04-10T09:31:36;101217.13;;;12.75;33.07
67517;BME280;68821;59.134;37.894;2023-04-10T09:36:40;101201.22;;;12.94;32.82
67517;BME280;68821;59.134;37.894;2023-04-10T09:39:09;101210.47;;;13.27;32.37
67517;BME280;68821;59.134;37.894;2023-04-10T09:44:38;101197.19;;;16.32;29.89
67517;BME280;68821;59.134;37.894;2023-04-10T09:47:19;101193.28;;;18.63;28.27
67517;BME280;68821;59.134;37.894;2023-04-10T09:49:48;101192.09;;;20.45;27.23
67517;BME280;68821;59.134;37.894;2023-04-10T09:52:33;101188.53;;;22.32;25.72
67517;BME280;68821;59.134;37.894;2023-04-10T09:55:02;101190.63;;;23.78;25.18
67517;BME280;68821;59.134;37.894;2023-04-10T09:57:34;101178.50;;;25.30;24.19
67517;BME280;68821;59.134;37.894;2023-04-10T10:00:02;101187.56;;;26.28;23.65
67517;BME280;68821;59.134;37.894;2023-04-10T10:02:30;101189.38;;;26.99;22.87
67517;BME280;68821;59.134;37.894;2023-04-10T10:04:59;101188.28;;;28.13;22.05
67517;BME280;68821;59.134;37.894;2023-04-10T10:07:26;101178.25;;;29.54;21.10
67517;BME280;68821;59.134;37.894;2023-04-10T10:09:53;101180.59;;;31.27;19.81
67517;BME280;68821;59.134;37.894;2023-04-10T10:12:45;101175.63;;;32.98;17.97
67517;BME280;68821;59.134;37.894;2023-04-10T10:15:24;101175.50;;;34.58;17.53
67517;BME280;68821;59.134;37.894;2023-04-10T10:20:57;101185.78;;;35.73;15.65
67517;BME280;68821;59.134;37.894;2023-04-10T10:23:24;101179.16;;;36.24;15.37
67517;BME280;68821;59.134;37.894;2023-04-10T10:25:53;101181.28;;;36.98;14.49
67517;BME280;68821;59.134;37.894;2023-04-10T10:28:19;101178.44;;;37.54;14.29
67517;BME280;68821;59.134;37.894;2023-04-10T10:30:47;101173.75;;;38.10;13.46
67517;BME280;68821;59.134;37.894;2023-04-10T10:33:16;101176.97;;;38.34;13.34
67517;BME280;68821;59.134;37.894;2023-04-10T10:35:42;101172.25;;;38.27;12.87
67517;BME280;68821;59.134;37.894;2023-04-10T10:38:09;101170.09;;;38.20;13.28
67517;BME280;68821;59.134;37.894;2023-04-10T10:40:48;101168.31;;;37.79;14.04
67517;BME280;68821;59.134;37.894;2023-04-10T10:46:07;101171.88;;;38.41;12.61
67517;BME280;68821;59.134;37.894;2023-04-10T10:48:34;101167.63;;;38.69;12.70
67517;BME280;68821;59.134;37.894;2023-04-10T10:51:00;101161.88;;;39.13;12.41
67517;BME280;68821;59.134;37.894;2023-04-10T10:53:36;101166.00;;;39.46;11.76
67517;BME280;68821;59.134;37.894;2023-04-10T10:58:50;101156.19;;;39.74;11.30
67517;BME280;68821;59.134;37.894;2023-04-10T11:01:18;101152.78;;;39.92;11.66
67517;BME280;68821;59.134;37.894;2023-04-10T11:03:45;101160.47;;;40.14;10.96
67517;BME280;68821;59.134;37.894;2023-04-10T11:06:15;101143.44;;;40.14;11.15
67517;BME280;68821;59.134;37.894;2023-04-10T11:08:48;101150.59;;;40.05;10.93
67517;BME280;68821;59.134;37.894;2023-04-10T11:19:05;101148.28;;;39.63;10.78
67517;BME280;68821;59.134;37.894;2023-04-10T11:21:33;101142.19;;;39.61;10.86
67517;BME280;68821;59.134;37.894;2023-04-10T11:24:01;101133.09;;;39.72;10.75
67517;BME280;68821;59.134;37.894;2023-04-10T11:31:39;101133.41;;;39.30;10.71
67517;BME280;68821;59.134;37.894;2023-04-10T11:34:06;101133.56;;;38.39;11.02
67517;BME280;68821;59.134;37.894;2023-04-10T11:36:34;101130.47;;;37.61;11.19
67517;BME280;68821;59.134;37.894;2023-04-10T11:39:05;101123.63;;;36.71;11.84
67517;BME280;68821;59.134;37.894;2023-04-10T11:41:41;101122.94;;;35.19;11.93
67517;BME280;68821;59.134;37.894;2023-04-10T11:44:09;101124.28;;;34.40;12.34
67517;BME280;68821;59.134;37.894;2023-04-10T11:46:40;101109.06;;;34.53;12.07
67517;BME280;68821;59.134;37.894;2023-04-10T11:49:08;101113.44;;;34.67;12.60
67517;BME280;68821;59.134;37.894;2023-04-10T11:51:35;101118.59;;;34.44;11.97
67517;BME280;68821;59.134;37.894;2023-04-10T11:54:15;101110.56;;;33.42;11.84
67517;BME280;68821;59.134;37.894;2023-04-10T11:56:44;101114.25;;;32.99;12.59
67517;BME280;68821;59.134;37.894;2023-04-10T11:59:16;101101.34;;;32.93;12.43
67517;BME280;68821;59.134;37.894;2023-04-10T12:01:45;101112.81;;;32.66;12.68
67517;BME280;68821;59.134;37.894;2023-04-10T12:04:16;101102.19;;;32.38;12.78
67517;BME280;68821;59.134;37.894;2023-04-10T12:06:47;101105.31;;;31.42;13.17
67517;BME280;68821;59.134;37.894;2023-04-10T12:09:15;101093.50;;;30.21;13.68
67517;BME280;68821;59.134;37.894;2023-04-10T12:14:16;101096.97;;;28.44;14.25
67517;BME280;68821;59.134;37.894;2023-04-10T12:16:43;101098.38;;;28.13;14.66
67517;BME280;68821;59.134;37.894;2023-04-10T12:19:11;101085.38;;;28.27;14.31
67517;BME280;68821;59.134;37.894;2023-04-10T12:21:38;101076.59;;;28.84;14.51
67517;BME280;68821;59.134;37.894;2023-04-10T12:24:06;101081.78;;;29.04;14.43
67517;BME280;68821;59.134;37.894;2023-04-10T12:26:32;101078.09;;;29.26;14.74
67517;BME280;68821;59.134;37.894;2023-04-10T12:28:58;101078.50;;;30.04;14.05
67517;BME280;68821;59.134;37.894;2023-04-10T12:31:25;101079.22;;;29.90;14.41
67517;BME280;68821;59.134;37.894;2023-04-10T12:33:52;101071.28;;;29.90;14.02
67517;BME280;68821;59.134;37.894;2023-04-10T12:36:27;101068.78;;;29.69;13.80
67517;BME280;68821;59.134;37.894;2023-04-10T12:38:55;101058.88;;;29.03;14.30
67517;BME280;68821;59.134;37.894;2023-04-10T12:41:27;101061.03;;;28.78;14.63
67517;BME280;68821;59.134;37.894;2023-04-10T12:44:07;101052.59;;;28.51;14.72
67517;BME280;68821;59.134;37.894;2023-04-10T12:46:33;101046.91;;;28.96;14.80
67517;BME280;68821;59.134;37.894;2023-04-10T12:49:14;101051.19;;;29.68;14.10
67517;BME280;68821;59.134;37.894;2023-04-10T12:51:50;101038.75;;;30.20;13.91
67517;BME280;68821;59.134;37.894;2023-04-10T12:54:45;101043.84;;;29.91;14.05
67517;BME280;68821;59.134;37.894;2023-04-10T12:57:27;101043.38;;;29.65;14.62
67517;BME280;68821;59.134;37.894;2023-04-10T12:59:53;101034.09;;;29.23;14.40
67517;BME280;68821;59.134;37.894;2023-04-10T13:02:26;101018.81;;;28.75;14.74
67517;BME280;68821;59.134;37.894;2023-04-10T13:04:53;101027.22;;;28.27;14.73
67517;BME280;68821;59.134;37.894;2023-04-10T13:07:20;101028.97;;;28.46;14.60
67517;BME280;68821;59.134;37.894;2023-04-10T13:09:46;101037.22;;;28.40;14.50
67517;BME280;68821;59.134;37.894;2023-04-10T13:12:13;101036.66;;;28.52;14.70
67517;BME280;68821;59.134;37.894;2023-04-10T13:14:39;101035.41;;;29.49;14.34
67517;BME280;68821;59.134;37.894;2023-04-10T13:17:06;101037.72;;;31.02;14.19
67517;BME280;68821;59.134;37.894;2023-04-10T13:19:32;101019.66;;;32.52;13.32
67517;BME280;68821;59.134;37.894;2023-04-10T13:21:58;101015.34;;;33.70;12.24
67517;BME280;68821;59.134;37.894;2023-04-10T13:24:26;101018.22;;;34.66;12.28
67517;BME280;68821;59.134;37.894;2023-04-10T13:26:52;101011.34;;;35.10;11.74